sensor_id;sensor_type;location;lat;lon;timestamp;temperature;humidity
80230;DHT22;69540;42.136;24.742;2024-01-27T00:01:34;8.70;41.70
80230;DHT22;69540;42.136;24.742;2024-01-27T00:04:00;8.80;41.60
80230;DHT22;69540;42.136;24.742;2024-01-27T00:06:25;8.80;41.40
80230;DHT22;69540;42.136;24.742;2024-01-27T00:08:51;8.80;41.40
80230;DHT22;69540;42.136;24.742;2024-01-27T00:11:17;8.80;41.20
80230;DHT22;69540;42.136;24.742;2024-01-27T00:13:44;8.90;41.20
80230;DHT22;69540;42.136;24.742;2024-01-27T00:16:10;8.90;41.10
80230;DHT22;69540;42.136;24.742;2024-01-27T00:18:36;8.90;41.00
80230;DHT22;69540;42.136;24.742;2024-01-27T00:21:03;8.90;40.90
80230;DHT22;69540;42.136;24.742;2024-01-27T00:23:29;8.90;40.80
80230;DHT22;69540;42.136;24.742;2024-01-27T00:25:54;8.80;40.70
80230;DHT22;69540;42.136;24.742;2024-01-27T00:28:20;8.90;40.50
80230;DHT22;69540;42.136;24.742;2024-01-27T00:30:46;9.00;40.50
80230;DHT22;69540;42.136;24.742;2024-01-27T00:33:12;9.00;40.40
80230;DHT22;69540;42.136;24.742;2024-01-27T00:35:38;9.00;40.30
80230;DHT22;69540;42.136;24.742;2024-01-27T00:38:03;9.10;40.20
80230;DHT22;69540;42.136;24.742;2024-01-27T00:40:29;9.10;40.10
80230;DHT22;69540;42.136;24.742;2024-01-27T00:42:55;9.10;40.00
80230;DHT22;69540;42.136;24.742;2024-01-27T00:45:21;9.10;39.50
80230;DHT22;69540;42.136;24.742;2024-01-27T00:47:50;9.10;39.40
80230;DHT22;69540;42.136;24.742;2024-01-27T00:50:16;9.10;39.30
80230;DHT22;69540;42.136;24.742;2024-01-27T00:52:41;9.10;39.30
80230;DHT22;69540;42.136;24.742;2024-01-27T00:55:07;9.20;39.40
80230;DHT22;69540;42.136;24.742;2024-01-27T00:57:33;9.10;39.40
80230;DHT22;69540;42.136;24.742;2024-01-27T00:59:59;9.20;39.20
80230;DHT22;69540;42.136;24.742;2024-01-27T01:02:24;9.20;39.20
80230;DHT22;69540;42.136;24.742;2024-01-27T01:04:50;9.10;39.40
80230;DHT22;69540;42.136;24.742;2024-01-27T01:07:16;9.00;39.40
80230;DHT22;69540;42.136;24.742;2024-01-27T01:09:41;8.90;39.70
80230;DHT22;69540;42.136;24.742;2024-01-27T01:12:07;8.80;39.70
80230;DHT22;69540;42.136;24.742;2024-01-27T01:14:33;8.70;39.90
80230;DHT22;69540;42.136;24.742;2024-01-27T01:16:59;8.60;40.10
80230;DHT22;69540;42.136;24.742;2024-01-27T01:19:25;8.50;40.20
80230;DHT22;69540;42.136;24.742;2024-01-27T01:21:50;8.50;40.10
80230;DHT22;69540;42.136;24.742;2024-01-27T01:24:16;8.50;39.90
80230;DHT22;69540;42.136;24.742;2024-01-27T01:26:42;8.50;39.90
80230;DHT22;69540;42.136;24.742;2024-01-27T01:29:08;8.50;39.70
80230;DHT22;69540;42.136;24.742;2024-01-27T01:31:33;8.60;39.90
80230;DHT22;69540;42.136;24.742;2024-01-27T01:33:59;8.60;40.00
80230;DHT22;69540;42.136;24.742;2024-01-27T01:36:25;8.60;40.00
80230;DHT22;69540;42.136;24.742;2024-01-27T01:38:50;8.70;40.00
80230;DHT22;69540;42.136;24.742;2024-01-27T01:41:16;8.70;40.00
80230;DHT22;69540;42.136;24.742;2024-01-27T01:43:42;8.70;40.00
80230;DHT22;69540;42.136;24.742;2024-01-27T01:46:07;8.70;40.20
80230;DHT22;69540;42.136;24.742;2024-01-27T01:48:34;8.70;40.20
80230;DHT22;69540;42.136;24.742;2024-01-27T01:51:00;8.70;40.00
80230;DHT22;69540;42.136;24.742;2024-01-27T01:53:26;8.70;40.00
80230;DHT22;69540;42.136;24.742;2024-01-27T01:55:52;8.70;39.80
80230;DHT22;69540;42.136;24.742;2024-01-27T01:58:18;8.70;39.70
80230;DHT22;69540;42.136;24.742;2024-01-27T02:00:44;8.70;39.80
80230;DHT22;69540;42.136;24.742;2024-01-27T02:03:13;8.80;41.00
80230;DHT22;69540;42.136;24.742;2024-01-27T02:05:39;8.60;39.40
80230;DHT22;69540;42.136;24.742;2024-01-27T02:08:05;8.60;39.60
80230;DHT22;69540;42.136;24.742;2024-01-27T02:10:31;8.60;39.50
80230;DHT22;69540;42.136;24.742;2024-01-27T02:13:19;8.60;39.70
80230;DHT22;69540;42.136;24.742;2024-01-27T02:15:46;8.60;39.70
80230;DHT22;69540;42.136;24.742;2024-01-27T02:18:12;8.60;39.70
80230;DHT22;69540;42.136;24.742;2024-01-27T02:20:37;8.60;39.90
80230;DHT22;69540;42.136;24.742;2024-01-27T02:23:04;8.60;39.90
80230;DHT22;69540;42.136;24.742;2024-01-27T02:25:34;8.60;40.00
80230;DHT22;69540;42.136;24.742;2024-01-27T02:28:00;8.70;40.00
80230;DHT22;69540;42.136;24.742;2024-01-27T02:30:26;8.70;39.90
80230;DHT22;69540;42.136;24.742;2024-01-27T02:32:52;8.70;39.90
80230;DHT22;69540;42.136;24.742;2024-01-27T02:35:18;8.70;39.90
80230;DHT22;69540;42.136;24.742;2024-01-27T02:37:43;8.70;39.70
80230;DHT22;69540;42.136;24.742;2024-01-27T02:40:10;8.70;39.60
80230;DHT22;69540;42.136;24.742;2024-01-27T02:42:36;8.70;39.60
80230;DHT22;69540;42.136;24.742;2024-01-27T02:45:03;8.70;39.70
80230;DHT22;69540;42.136;24.742;2024-01-27T02:47:29;8.70;39.70
80230;DHT22;69540;42.136;24.742;2024-01-27T02:49:55;8.70;39.70
80230;DHT22;69540;42.136;24.742;2024-01-27T02:52:20;8.70;39.70
80230;DHT22;69540;42.136;24.742;2024-01-27T02:54:46;8.60;39.80
80230;DHT22;69540;42.136;24.742;2024-01-27T02:57:12;8.60;40.00
80230;DHT22;69540;42.136;24.742;2024-01-27T02:59:38;8.60;40.10
80230;DHT22;69540;42.136;24.742;2024-01-27T03:02:07;8.60;40.20
80230;DHT22;69540;42.136;24.742;2024-01-27T03:04:33;8.60;40.40
80230;DHT22;69540;42.136;24.742;2024-01-27T03:06:58;8.50;40.60
80230;DHT22;69540;42.136;24.742;2024-01-27T03:09:24;8.50;40.60
80230;DHT22;69540;42.136;24.742;2024-01-27T03:11:50;8.50;40.70
80230;DHT22;69540;42.136;24.742;2024-01-27T03:14:15;8.50;40.70
80230;DHT22;69540;42.136;24.742;2024-01-27T03:16:42;8.50;40.70
80230;DHT22;69540;42.136;24.742;2024-01-27T03:19:08;8.40;40.60
80230;DHT22;69540;42.136;24.742;2024-01-27T03:21:34;8.40;40.70
80230;DHT22;69540;42.136;24.742;2024-01-27T03:23:59;8.40;40.70
80230;DHT22;69540;42.136;24.742;2024-01-27T03:26:25;8.30;40.80
80230;DHT22;69540;42.136;24.742;2024-01-27T03:28:51;8.30;41.00
80230;DHT22;69540;42.136;24.742;2024-01-27T03:31:16;8.30;41.00
80230;DHT22;69540;42.136;24.742;2024-01-27T03:33:42;8.30;41.20
80230;DHT22;69540;42.136;24.742;2024-01-27T03:36:12;8.30;41.20
80230;DHT22;69540;42.136;24.742;2024-01-27T03:38:38;8.30;41.00
80230;DHT22;69540;42.136;24.742;2024-01-27T03:41:04;8.30;40.90
80230;DHT22;69540;42.136;24.742;2024-01-27T03:43:30;8.30;40.20
80230;DHT22;69540;42.136;24.742;2024-01-27T03:45:57;8.20;39.30
80230;DHT22;69540;42.136;24.742;2024-01-27T03:48:23;8.20;38.80
80230;DHT22;69540;42.136;24.742;2024-01-27T03:50:48;8.20;38.80
80230;DHT22;69540;42.136;24.742;2024-01-27T03:53:14;8.20;38.60
80230;DHT22;69540;42.136;24.742;2024-01-27T03:55:40;8.20;38.20
80230;DHT22;69540;42.136;24.742;2024-01-27T03:58:06;8.30;38.20
80230;DHT22;69540;42.136;24.742;2024-01-27T04:00:32;8.30;38.10
80230;DHT22;69540;42.136;24.742;2024-01-27T04:02:59;8.30;38.10
80230;DHT22;69540;42.136;24.742;2024-01-27T04:05:26;8.40;38.00
80230;DHT22;69540;42.136;24.742;2024-01-27T04:07:52;8.50;37.90
80230;DHT22;69540;42.136;24.742;2024-01-27T04:10:18;8.50;37.50
80230;DHT22;69540;42.136;24.742;2024-01-27T04:12:44;8.50;37.20
80230;DHT22;69540;42.136;24.742;2024-01-27T04:15:12;8.60;36.90
80230;DHT22;69540;42.136;24.742;2024-01-27T04:17:39;8.60;36.40
80230;DHT22;69540;42.136;24.742;2024-01-27T04:20:07;8.70;36.50
80230;DHT22;69540;42.136;24.742;2024-01-27T04:22:34;8.70;36.40
80230;DHT22;69540;42.136;24.742;2024-01-27T04:25:00;8.70;36.40
80230;DHT22;69540;42.136;24.742;2024-01-27T04:27:29;8.70;36.40
80230;DHT22;69540;42.136;24.742;2024-01-27T04:29:55;8.70;36.80
80230;DHT22;69540;42.136;24.742;2024-01-27T04:32:22;8.80;37.20
80230;DHT22;69540;42.136;24.742;2024-01-27T04:34:48;8.80;37.70
80230;DHT22;69540;42.136;24.742;2024-01-27T04:37:14;8.80;37.50
80230;DHT22;69540;42.136;24.742;2024-01-27T04:39:39;8.80;37.30
80230;DHT22;69540;42.136;24.742;2024-01-27T04:42:05;8.90;37.20
80230;DHT22;69540;42.136;24.742;2024-01-27T04:44:32;8.90;37.10
80230;DHT22;69540;42.136;24.742;2024-01-27T04:46:58;9.00;36.80
80230;DHT22;69540;42.136;24.742;2024-01-27T04:49:23;9.00;36.40
80230;DHT22;69540;42.136;24.742;2024-01-27T04:51:49;9.00;36.00
80230;DHT22;69540;42.136;24.742;2024-01-27T04:54:15;9.10;35.90
80230;DHT22;69540;42.136;24.742;2024-01-27T04:56:41;9.10;35.90
80230;DHT22;69540;42.136;24.742;2024-01-27T04:59:07;9.10;36.10
80230;DHT22;69540;42.136;24.742;2024-01-27T05:01:33;9.10;36.30
80230;DHT22;69540;42.136;24.742;2024-01-27T05:03:59;9.10;36.50
80230;DHT22;69540;42.136;24.742;2024-01-27T05:06:24;9.20;36.60
80230;DHT22;69540;42.136;24.742;2024-01-27T05:08:50;9.20;36.60
80230;DHT22;69540;42.136;24.742;2024-01-27T05:11:27;9.20;36.40
80230;DHT22;69540;42.136;24.742;2024-01-27T05:13:53;9.20;36.30
80230;DHT22;69540;42.136;24.742;2024-01-27T05:16:18;9.30;36.20
80230;DHT22;69540;42.136;24.742;2024-01-27T05:18:44;9.30;36.20
80230;DHT22;69540;42.136;24.742;2024-01-27T05:21:10;9.30;36.00
80230;DHT22;69540;42.136;24.742;2024-01-27T05:23:35;9.30;35.60
80230;DHT22;69540;42.136;24.742;2024-01-27T05:26:01;9.40;35.30
80230;DHT22;69540;42.136;24.742;2024-01-27T05:28:27;9.40;34.90
80230;DHT22;69540;42.136;24.742;2024-01-27T05:30:53;9.40;34.70
80230;DHT22;69540;42.136;24.742;2024-01-27T05:33:18;9.40;34.50
80230;DHT22;69540;42.136;24.742;2024-01-27T05:35:44;9.50;34.20
80230;DHT22;69540;42.136;24.742;2024-01-27T05:38:10;9.50;34.10
80230;DHT22;69540;42.136;24.742;2024-01-27T05:40:35;9.50;34.10
80230;DHT22;69540;42.136;24.742;2024-01-27T05:43:01;9.60;33.90
80230;DHT22;69540;42.136;24.742;2024-01-27T05:45:27;9.60;34.10
80230;DHT22;69540;42.136;24.742;2024-01-27T05:47:54;9.60;34.10
80230;DHT22;69540;42.136;24.742;2024-01-27T05:50:20;9.60;34.30
80230;DHT22;69540;42.136;24.742;2024-01-27T05:52:45;9.60;34.40
80230;DHT22;69540;42.136;24.742;2024-01-27T05:55:11;9.60;34.40
80230;DHT22;69540;42.136;24.742;2024-01-27T05:57:38;9.60;34.50
80230;DHT22;69540;42.136;24.742;2024-01-27T06:00:04;9.60;34.70
80230;DHT22;69540;42.136;24.742;2024-01-27T06:02:31;9.60;34.90
80230;DHT22;69540;42.136;24.742;2024-01-27T06:04:56;9.60;35.10
80230;DHT22;69540;42.136;24.742;2024-01-27T06:07:22;9.60;35.80
80230;DHT22;69540;42.136;24.742;2024-01-27T06:09:48;9.60;36.00
80230;DHT22;69540;42.136;24.742;2024-01-27T06:12:13;9.60;36.30
80230;DHT22;69540;42.136;24.742;2024-01-27T06:14:40;9.70;36.00
80230;DHT22;69540;42.136;24.742;2024-01-27T06:17:06;9.60;35.10
80230;DHT22;69540;42.136;24.742;2024-01-27T06:19:32;9.70;35.20
80230;DHT22;69540;42.136;24.742;2024-01-27T06:21:57;9.70;34.60
80230;DHT22;69540;42.136;24.742;2024-01-27T06:24:23;9.70;34.40
80230;DHT22;69540;42.136;24.742;2024-01-27T06:26:49;9.70;34.40
80230;DHT22;69540;42.136;24.742;2024-01-27T06:29:15;9.70;34.10
80230;DHT22;69540;42.136;24.742;2024-01-27T06:31:40;9.70;34.20
80230;DHT22;69540;42.136;24.742;2024-01-27T06:34:06;9.70;34.30
80230;DHT22;69540;42.136;24.742;2024-01-27T06:36:32;9.70;34.70
80230;DHT22;69540;42.136;24.742;2024-01-27T06:38:58;9.80;36.70
80230;DHT22;69540;42.136;24.742;2024-01-27T06:41:23;9.80;36.70
80230;DHT22;69540;42.136;24.742;2024-01-27T06:43:49;9.80;38.40
80230;DHT22;69540;42.136;24.742;2024-01-27T06:46:15;9.80;39.50
80230;DHT22;69540;42.136;24.742;2024-01-27T06:48:40;9.80;40.30
80230;DHT22;69540;42.136;24.742;2024-01-27T06:51:06;9.70;41.00
80230;DHT22;69540;42.136;24.742;2024-01-27T06:53:32;9.60;41.60
80230;DHT22;69540;42.136;24.742;2024-01-27T06:55:58;9.60;42.10
80230;DHT22;69540;42.136;24.742;2024-01-27T06:58:23;9.70;42.30
80230;DHT22;69540;42.136;24.742;2024-01-27T07:00:49;9.60;42.40
80230;DHT22;69540;42.136;24.742;2024-01-27T07:03:15;9.50;42.70
80230;DHT22;69540;42.136;24.742;2024-01-27T07:05:41;9.50;43.10
80230;DHT22;69540;42.136;24.742;2024-01-27T07:08:07;9.50;43.40
80230;DHT22;69540;42.136;24.742;2024-01-27T07:10:33;9.50;43.70
80230;DHT22;69540;42.136;24.742;2024-01-27T07:12:59;9.40;43.60
80230;DHT22;69540;42.136;24.742;2024-01-27T07:15:25;9.40;43.50
80230;DHT22;69540;42.136;24.742;2024-01-27T07:17:52;9.40;44.00
80230;DHT22;69540;42.136;24.742;2024-01-27T07:20:19;9.40;44.00
80230;DHT22;69540;42.136;24.742;2024-01-27T07:22:45;9.50;43.50
80230;DHT22;69540;42.136;24.742;2024-01-27T07:25:11;9.50;42.80
80230;DHT22;69540;42.136;24.742;2024-01-27T07:27:36;9.60;42.30
80230;DHT22;69540;42.136;24.742;2024-01-27T07:30:03;9.60;42.20
80230;DHT22;69540;42.136;24.742;2024-01-27T07:32:28;9.60;41.80
80230;DHT22;69540;42.136;24.742;2024-01-27T07:34:54;9.70;41.40
80230;DHT22;69540;42.136;24.742;2024-01-27T07:37:20;9.80;41.30
80230;DHT22;69540;42.136;24.742;2024-01-27T07:39:46;9.80;41.20
80230;DHT22;69540;42.136;24.742;2024-01-27T07:42:14;9.80;41.20
80230;DHT22;69540;42.136;24.742;2024-01-27T07:44:41;9.80;41.30
80230;DHT22;69540;42.136;24.742;2024-01-27T07:47:08;9.80;41.70
80230;DHT22;69540;42.136;24.742;2024-01-27T07:49:36;9.80;41.60
80230;DHT22;69540;42.136;24.742;2024-01-27T07:52:03;9.70;41.30
80230;DHT22;69540;42.136;24.742;2024-01-27T07:54:28;9.60;41.40
80230;DHT22;69540;42.136;24.742;2024-01-27T07:56:54;9.70;41.70
80230;DHT22;69540;42.136;24.742;2024-01-27T07:59:20;9.80;42.10
80230;DHT22;69540;42.136;24.742;2024-01-27T08:01:46;9.80;42.70
80230;DHT22;69540;42.136;24.742;2024-01-27T08:04:11;9.80;42.70
80230;DHT22;69540;42.136;24.742;2024-01-27T08:06:48;9.80;43.00
80230;DHT22;69540;42.136;24.742;2024-01-27T08:09:14;9.90;43.20
80230;DHT22;69540;42.136;24.742;2024-01-27T08:11:40;9.80;43.00
80230;DHT22;69540;42.136;24.742;2024-01-27T08:14:06;9.80;42.80
80230;DHT22;69540;42.136;24.742;2024-01-27T08:16:32;9.80;42.70
80230;DHT22;69540;42.136;24.742;2024-01-27T08:18:57;9.80;42.60
80230;DHT22;69540;42.136;24.742;2024-01-27T08:21:23;9.80;42.50
80230;DHT22;69540;42.136;24.742;2024-01-27T08:23:49;9.80;42.00
80230;DHT22;69540;42.136;24.742;2024-01-27T08:26:14;9.80;41.80
80230;DHT22;69540;42.136;24.742;2024-01-27T08:28:41;9.80;41.40
80230;DHT22;69540;42.136;24.742;2024-01-27T08:31:06;9.80;41.60
80230;DHT22;69540;42.136;24.742;2024-01-27T08:33:32;9.90;41.20
80230;DHT22;69540;42.136;24.742;2024-01-27T08:35:58;10.00;40.70
80230;DHT22;69540;42.136;24.742;2024-01-27T08:38:23;10.10;40.30
80230;DHT22;69540;42.136;24.742;2024-01-27T08:40:49;10.10;40.00
80230;DHT22;69540;42.136;24.742;2024-01-27T08:43:15;10.10;40.40
80230;DHT22;69540;42.136;24.742;2024-01-27T08:45:41;10.10;40.50
80230;DHT22;69540;42.136;24.742;2024-01-27T08:48:07;10.20;40.80
80230;DHT22;69540;42.136;24.742;2024-01-27T08:50:33;10.20;41.40
80230;DHT22;69540;42.136;24.742;2024-01-27T08:52:59;10.20;42.40
80230;DHT22;69540;42.136;24.742;2024-01-27T08:55:24;10.40;43.50
80230;DHT22;69540;42.136;24.742;2024-01-27T08:57:51;10.40;44.20
80230;DHT22;69540;42.136;24.742;2024-01-27T09:00:17;10.50;44.40
80230;DHT22;69540;42.136;24.742;2024-01-27T09:02:43;10.40;45.60
80230;DHT22;69540;42.136;24.742;2024-01-27T09:05:09;10.40;46.30
80230;DHT22;69540;42.136;24.742;2024-01-27T09:07:35;10.50;47.20
80230;DHT22;69540;42.136;24.742;2024-01-27T09:10:01;10.50;47.90
80230;DHT22;69540;42.136;24.742;2024-01-27T09:12:27;10.70;47.90
80230;DHT22;69540;42.136;24.742;2024-01-27T09:14:53;10.90;47.40
80230;DHT22;69540;42.136;24.742;2024-01-27T09:17:20;11.10;47.10
80230;DHT22;69540;42.136;24.742;2024-01-27T09:19:46;11.30;46.60
80230;DHT22;69540;42.136;24.742;2024-01-27T09:22:11;11.50;45.90
80230;DHT22;69540;42.136;24.742;2024-01-27T09:24:37;11.70;45.50
80230;DHT22;69540;42.136;24.742;2024-01-27T09:27:03;12.00;44.10
80230;DHT22;69540;42.136;24.742;2024-01-27T09:29:29;12.10;43.20
80230;DHT22;69540;42.136;24.742;2024-01-27T09:31:55;12.30;43.20
80230;DHT22;69540;42.136;24.742;2024-01-27T09:34:20;12.50;42.10
80230;DHT22;69540;42.136;24.742;2024-01-27T09:36:46;12.70;39.60
80230;DHT22;69540;42.136;24.742;2024-01-27T09:39:12;12.90;39.50
80230;DHT22;69540;42.136;24.742;2024-01-27T09:41:38;13.00;40.30
80230;DHT22;69540;42.136;24.742;2024-01-27T09:44:04;13.20;38.30
80230;DHT22;69540;42.136;24.742;2024-01-27T09:46:31;13.30;37.70
80230;DHT22;69540;42.136;24.742;2024-01-27T09:48:57;13.40;37.60
80230;DHT22;69540;42.136;24.742;2024-01-27T09:51:24;13.50;36.70
80230;DHT22;69540;42.136;24.742;2024-01-27T09:53:51;13.60;36.40
80230;DHT22;69540;42.136;24.742;2024-01-27T09:56:17;13.60;36.60
80230;DHT22;69540;42.136;24.742;2024-01-27T09:58:47;13.70;36.70
80230;DHT22;69540;42.136;24.742;2024-01-27T10:01:16;13.70;36.20
80230;DHT22;69540;42.136;24.742;2024-01-27T10:03:46;13.70;36.00
80230;DHT22;69540;42.136;24.742;2024-01-27T10:06:12;13.70;36.30
80230;DHT22;69540;42.136;24.742;2024-01-27T10:08:40;13.70;36.10
80230;DHT22;69540;42.136;24.742;2024-01-27T10:11:09;13.70;35.50
80230;DHT22;69540;42.136;24.742;2024-01-27T10:13:36;13.60;35.40
80230;DHT22;69540;42.136;24.742;2024-01-27T10:16:05;13.50;35.50
80230;DHT22;69540;42.136;24.742;2024-01-27T10:18:32;13.40;36.10
80230;DHT22;69540;42.136;24.742;2024-01-27T10:20:58;13.30;36.00
80230;DHT22;69540;42.136;24.742;2024-01-27T10:23:24;13.30;35.40
80230;DHT22;69540;42.136;24.742;2024-01-27T10:25:50;13.40;35.60
80230;DHT22;69540;42.136;24.742;2024-01-27T10:28:16;13.30;35.40
80230;DHT22;69540;42.136;24.742;2024-01-27T10:30:43;13.30;35.20
80230;DHT22;69540;42.136;24.742;2024-01-27T10:33:09;13.20;35.10
80230;DHT22;69540;42.136;24.742;2024-01-27T10:35:43;13.20;35.50
80230;DHT22;69540;42.136;24.742;2024-01-27T10:38:09;13.00;35.60
80230;DHT22;69540;42.136;24.742;2024-01-27T10:40:38;13.00;35.90
80230;DHT22;69540;42.136;24.742;2024-01-27T10:43:08;13.00;36.40
80230;DHT22;69540;42.136;24.742;2024-01-27T10:45:38;12.90;37.00
80230;DHT22;69540;42.136;24.742;2024-01-27T10:48:05;12.90;36.60
80230;DHT22;69540;42.136;24.742;2024-01-27T10:50:35;12.90;36.90
80230;DHT22;69540;42.136;24.742;2024-01-27T10:53:03;12.90;37.20
80230;DHT22;69540;42.136;24.742;2024-01-27T10:55:33;13.00;37.00
80230;DHT22;69540;42.136;24.742;2024-01-27T10:57:59;13.00;36.90
80230;DHT22;69540;42.136;24.742;2024-01-27T11:00:29;13.10;37.20
80230;DHT22;69540;42.136;24.742;2024-01-27T11:02:59;13.20;36.70
80230;DHT22;69540;42.136;24.742;2024-01-27T11:05:27;13.20;36.70
80230;DHT22;69540;42.136;24.742;2024-01-27T11:07:54;13.20;37.00
80230;DHT22;69540;42.136;24.742;2024-01-27T11:10:20;13.20;37.10
80230;DHT22;69540;42.136;24.742;2024-01-27T11:12:47;13.30;37.30
80230;DHT22;69540;42.136;24.742;2024-01-27T11:15:13;13.30;36.90
80230;DHT22;69540;42.136;24.742;2024-01-27T11:17:40;13.40;36.50
80230;DHT22;69540;42.136;24.742;2024-01-27T11:20:08;13.50;36.70
80230;DHT22;69540;42.136;24.742;2024-01-27T11:22:35;13.50;36.70
80230;DHT22;69540;42.136;24.742;2024-01-27T11:25:17;13.50;36.60
80230;DHT22;69540;42.136;24.742;2024-01-27T11:49:57;12.90;39.90
80230;DHT22;69540;42.136;24.742;2024-01-27T11:52:24;12.90;39.70
80230;DHT22;69540;42.136;24.742;2024-01-27T11:54:57;13.00;39.00
80230;DHT22;69540;42.136;24.742;2024-01-27T11:57:24;13.10;38.40
80230;DHT22;69540;42.136;24.742;2024-01-27T11:59:51;13.30;38.20
80230;DHT22;69540;42.136;24.742;2024-01-27T12:02:17;13.30;38.10
80230;DHT22;69540;42.136;24.742;2024-01-27T12:04:42;13.40;37.90
80230;DHT22;69540;42.136;24.742;2024-01-27T12:07:09;13.40;38.10
80230;DHT22;69540;42.136;24.742;2024-01-27T12:09:36;13.30;38.50
80230;DHT22;69540;42.136;24.742;2024-01-27T12:12:03;13.20;38.50
80230;DHT22;69540;42.136;24.742;2024-01-27T12:14:44;13.10;38.60
80230;DHT22;69540;42.136;24.742;2024-01-27T12:17:11;13.10;38.80
80230;DHT22;69540;42.136;24.742;2024-01-27T12:19:37;12.90;39.00
80230;DHT22;69540;42.136;24.742;2024-01-27T12:22:04;12.90;39.40
80230;DHT22;69540;42.136;24.742;2024-01-27T12:24:31;12.90;39.40
80230;DHT22;69540;42.136;24.742;2024-01-27T12:26:59;12.80;39.40
80230;DHT22;69540;42.136;24.742;2024-01-27T12:29:25;12.80;39.60
80230;DHT22;69540;42.136;24.742;2024-01-27T12:31:51;12.60;39.90
80230;DHT22;69540;42.136;24.742;2024-01-27T12:34:18;12.50;40.40
80230;DHT22;69540;42.136;24.742;2024-01-27T12:36:45;12.40;40.70
80230;DHT22;69540;42.136;24.742;2024-01-27T12:39:10;12.30;41.20
80230;DHT22;69540;42.136;24.742;2024-01-27T12:41:37;12.30;41.20
80230;DHT22;69540;42.136;24.742;2024-01-27T12:44:03;12.20;41.40
80230;DHT22;69540;42.136;24.742;2024-01-27T12:46:29;12.20;41.30
80230;DHT22;69540;42.136;24.742;2024-01-27T12:48:55;12.10;41.70
80230;DHT22;69540;42.136;24.742;2024-01-27T12:51:20;12.00;41.90
80230;DHT22;69540;42.136;24.742;2024-01-27T12:53:46;11.90;41.80
80230;DHT22;69540;42.136;24.742;2024-01-27T12:56:14;11.90;42.00
80230;DHT22;69540;42.136;24.742;2024-01-27T12:58:40;11.80;42.10
80230;DHT22;69540;42.136;24.742;2024-01-27T13:01:07;11.80;42.20
80230;DHT22;69540;42.136;24.742;2024-01-27T13:03:33;11.80;42.30
80230;DHT22;69540;42.136;24.742;2024-01-27T13:05:59;11.80;42.40
80230;DHT22;69540;42.136;24.742;2024-01-27T13:08:25;11.70;42.60
80230;DHT22;69540;42.136;24.742;2024-01-27T13:10:51;11.60;42.80
80230;DHT22;69540;42.136;24.742;2024-01-27T13:13:17;11.70;42.80
80230;DHT22;69540;42.136;24.742;2024-01-27T13:15:42;11.60;43.00
80230;DHT22;69540;42.136;24.742;2024-01-27T13:18:09;11.60;43.20
80230;DHT22;69540;42.136;24.742;2024-01-27T13:20:36;11.70;43.40
80230;DHT22;69540;42.136;24.742;2024-01-27T13:23:02;11.70;43.30
80230;DHT22;69540;42.136;24.742;2024-01-27T13:25:27;11.70;43.20
80230;DHT22;69540;42.136;24.742;2024-01-27T13:27:53;11.70;43.30
80230;DHT22;69540;42.136;24.742;2024-01-27T13:30:19;11.70;43.50
80230;DHT22;69540;42.136;24.742;2024-01-27T13:32:45;11.70;43.40
80230;DHT22;69540;42.136;24.742;2024-01-27T13:35:10;11.70;43.10
80230;DHT22;69540;42.136;24.742;2024-01-27T13:37:37;11.60;43.30
80230;DHT22;69540;42.136;24.742;2024-01-27T13:40:04;11.50;43.60
80230;DHT22;69540;42.136;24.742;2024-01-27T13:42:30;11.60;43.60
80230;DHT22;69540;42.136;24.742;2024-01-27T13:44:56;11.60;43.50
80230;DHT22;69540;42.136;24.742;2024-01-27T13:47:22;11.60;43.20
80230;DHT22;69540;42.136;24.742;2024-01-27T13:49:48;11.60;43.00
80230;DHT22;69540;42.136;24.742;2024-01-27T13:52:14;11.60;42.90
80230;DHT22;69540;42.136;24.742;2024-01-27T13:54:39;11.50;43.00
80230;DHT22;69540;42.136;24.742;2024-01-27T13:57:06;11.50;43.00
80230;DHT22;69540;42.136;24.742;2024-01-27T13:59:32;11.50;43.00
80230;DHT22;69540;42.136;24.742;2024-01-27T14:01:58;11.50;43.00
80230;DHT22;69540;42.136;24.742;2024-01-27T14:04:24;11.60;43.30
80230;DHT22;69540;42.136;24.742;2024-01-27T14:06:53;11.50;43.00
80230;DHT22;69540;42.136;24.742;2024-01-27T14:09:20;11.40;42.80
80230;DHT22;69540;42.136;24.742;2024-01-27T14:11:46;11.40;42.30
80230;DHT22;69540;42.136;24.742;2024-01-27T14:14:12;11.40;42.10
80230;DHT22;69540;42.136;24.742;2024-01-27T14:16:38;11.40;42.40
80230;DHT22;69540;42.136;24.742;2024-01-27T14:19:04;11.40;42.70
80230;DHT22;69540;42.136;24.742;2024-01-27T14:21:31;11.40;42.50
80230;DHT22;69540;42.136;24.742;2024-01-27T14:23:57;11.40;42.00
80230;DHT22;69540;42.136;24.742;2024-01-27T14:26:29;11.40;41.70
80230;DHT22;69540;42.136;24.742;2024-01-27T14:28:55;11.40;41.40
80230;DHT22;69540;42.136;24.742;2024-01-27T14:31:21;11.40;41.40
80230;DHT22;69540;42.136;24.742;2024-01-27T14:33:48;11.40;41.40
80230;DHT22;69540;42.136;24.742;2024-01-27T14:36:14;11.40;40.80
80230;DHT22;69540;42.136;24.742;2024-01-27T14:38:40;11.40;40.60
80230;DHT22;69540;42.136;24.742;2024-01-27T14:41:07;11.40;40.70
80230;DHT22;69540;42.136;24.742;2024-01-27T14:43:32;11.40;40.70
80230;DHT22;69540;42.136;24.742;2024-01-27T14:45:58;11.30;41.00
80230;DHT22;69540;42.136;24.742;2024-01-27T14:48:24;11.30;40.60
80230;DHT22;69540;42.136;24.742;2024-01-27T14:50:51;11.30;40.80
80230;DHT22;69540;42.136;24.742;2024-01-27T14:53:27;11.30;40.80
80230;DHT22;69540;42.136;24.742;2024-01-27T14:55:56;11.20;40.60
80230;DHT22;69540;42.136;24.742;2024-01-27T14:58:22;11.20;40.60
80230;DHT22;69540;42.136;24.742;2024-01-27T15:00:48;11.20;40.40
80230;DHT22;69540;42.136;24.742;2024-01-27T15:03:21;11.20;39.80
80230;DHT22;69540;42.136;24.742;2024-01-27T15:05:49;11.20;39.30
80230;DHT22;69540;42.136;24.742;2024-01-27T15:08:19;11.20;38.70
80230;DHT22;69540;42.136;24.742;2024-01-27T15:10:45;11.20;42.80
80230;DHT22;69540;42.136;24.742;2024-01-27T15:13:11;11.10;39.60
80230;DHT22;69540;42.136;24.742;2024-01-27T15:15:37;11.10;40.30
80230;DHT22;69540;42.136;24.742;2024-01-27T15:18:05;11.00;38.80
80230;DHT22;69540;42.136;24.742;2024-01-27T15:20:31;11.10;38.40
80230;DHT22;69540;42.136;24.742;2024-01-27T15:22:56;11.00;38.30
80230;DHT22;69540;42.136;24.742;2024-01-27T15:25:22;10.90;38.60
80230;DHT22;69540;42.136;24.742;2024-01-27T15:27:50;10.80;38.30
80230;DHT22;69540;42.136;24.742;2024-01-27T15:30:17;10.90;38.30
80230;DHT22;69540;42.136;24.742;2024-01-27T15:32:45;10.90;38.10
80230;DHT22;69540;42.136;24.742;2024-01-27T15:35:11;10.80;37.70
80230;DHT22;69540;42.136;24.742;2024-01-27T15:37:37;10.80;37.70
80230;DHT22;69540;42.136;24.742;2024-01-27T15:40:04;10.60;37.90
80230;DHT22;69540;42.136;24.742;2024-01-27T15:42:30;10.60;38.00